Time;durP1;ratioP1;P1;durP2;ratioP2;P2;SDS_P1;SDS_P2;PMS_P1;PMS_P2;Temp;Humidity;BMP_temperature;BMP_pressure;BME280_temperature;BME280_humidity;BME280_pressure;Samples;Min_cycle;Max_cycle;Signal;HPM_P1;HPM_P2
2024/01/27 00:01:40;;;;;;;1.80;1.80;;;6.30;99.90;;;;;;5041442;28;20025;-68
2024/01/27 00:04:05;;;;;;;1.95;1.95;;;6.30;99.90;;;;;;5033704;28;20038;-68
2024/01/27 00:06:31;;;;;;;2.00;2.00;;;6.30;99.90;;;;;;5031858;28;20115;-68
2024/01/27 00:08:56;;;;;;;1.90;1.90;;;6.30;99.90;;;;;;5032297;28;20033;-69
2024/01/27 00:11:24;;;;;;;2.17;2.17;;;6.30;99.90;;;;;;5032024;28;20037;-69
2024/01/27 00:13:50;;;;;;;2.15;2.10;;;6.30;99.90;;;;;;5031951;28;20032;-68
2024/01/27 00:16:16;;;;;;;1.90;1.90;;;6.20;99.90;;;;;;5030228;28;20038;-69
2024/01/27 00:18:41;;;;;;;2.00;2.00;;;6.20;99.90;;;;;;5032268;28;20445;-68
2024/01/27 00:21:07;;;;;;;2.00;2.00;;;6.20;99.90;;;;;;5032304;28;20107;-69
2024/01/27 00:23:34;;;;;;;2.00;2.00;;;6.20;99.90;;;;;;5034340;28;20036;-68
2024/01/27 00:26:03;;;;;;;1.90;1.90;;;6.20;99.90;;;;;;5047735;28;20099;-68
2024/01/27 00:28:29;;;;;;;5.57;3.63;;;6.20;99.90;;;;;;5038899;28;20036;-69
2024/01/27 00:30:54;;;;;;;2.78;2.67;;;6.10;99.90;;;;;;5034156;28;20029;-68
2024/01/27 00:33:21;;;;;;;2.30;2.30;;;6.00;99.90;;;;;;5035775;28;20412;-68
2024/01/27 00:35:47;;;;;;;2.45;2.35;;;6.00;99.90;;;;;;5040149;28;20381;-68
2024/01/27 00:38:13;;;;;;;2.35;2.28;;;6.00;99.90;;;;;;5055739;28;20028;-68
2024/01/27 00:40:38;;;;;;;2.20;2.20;;;6.00;99.90;;;;;;5055704;28;20028;-69
2024/01/27 00:43:04;;;;;;;3.33;3.13;;;6.00;99.90;;;;;;5055494;28;20040;-68
2024/01/27 00:45:30;;;;;;;2.33;2.33;;;5.90;99.90;;;;;;5055687;28;20025;-68
2024/01/27 00:47:58;;;;;;;2.50;2.40;;;5.90;99.90;;;;;;5042363;28;20025;-68
2024/01/27 00:50:24;;;;;;;2.30;2.30;;;5.90;99.90;;;;;;5034970;28;20091;-68
2024/01/27 00:52:50;;;;;;;2.40;2.30;;;5.90;99.90;;;;;;5039251;28;20384;-67
2024/01/27 00:55:17;;;;;;;2.55;2.45;;;5.90;99.90;;;;;;5054865;28;20033;-67
2024/01/27 00:57:43;;;;;;;2.25;2.25;;;5.80;99.90;;;;;;5055073;28;20029;-68
2024/01/27 01:00:10;;;;;;;2.10;2.10;;;5.90;99.90;;;;;;5053790;28;20051;-68
2024/01/27 01:02:36;;;;;;;2.30;2.30;;;5.80;99.90;;;;;;5045425;28;20592;-68
2024/01/27 01:05:03;;;;;;;2.95;2.83;;;5.80;99.90;;;;;;5040055;28;20035;-68
2024/01/27 01:07:30;;;;;;;6.28;3.10;;;5.80;99.90;;;;;;5033177;28;20109;-68
2024/01/27 01:09:55;;;;;;;2.50;2.40;;;5.80;99.90;;;;;;5034657;28;20057;-68
2024/01/27 01:12:21;;;;;;;2.78;2.67;;;5.80;99.90;;;;;;5032959;28;20140;-68
2024/01/27 01:14:47;;;;;;;3.25;3.15;;;5.80;99.90;;;;;;5045339;28;20024;-69
2024/01/27 01:17:14;;;;;;;2.85;2.75;;;5.80;99.90;;;;;;5036414;28;20033;-68
2024/01/27 01:19:40;;;;;;;3.97;3.63;;;5.80;99.90;;;;;;5042105;28;20018;-68
2024/01/27 01:22:06;;;;;;;3.53;3.38;;;5.80;99.90;;;;;;5047043;28;20025;-68
2024/01/27 01:24:32;;;;;;;2.83;2.72;;;5.80;99.90;;;;;;5050389;28;20048;-69
2024/01/27 01:26:58;;;;;;;2.80;2.70;;;5.80;99.90;;;;;;5040767;28;20353;-68
2024/01/27 01:29:23;;;;;;;2.80;2.70;;;5.80;99.90;;;;;;5046018;28;20026;-69
2024/01/27 01:31:49;;;;;;;3.20;3.10;;;5.70;99.90;;;;;;5045912;28;20041;-68
2024/01/27 01:34:15;;;;;;;3.10;3.00;;;5.70;99.90;;;;;;5038737;28;20029;-68
2024/01/27 01:36:40;;;;;;;3.30;3.20;;;5.70;99.90;;;;;;5049391;28;20083;-68
2024/01/27 01:39:06;;;;;;;3.30;3.20;;;5.70;99.90;;;;;;5037522;28;20025;-69
2024/01/27 01:41:32;;;;;;;10.40;4.30;;;5.70;99.90;;;;;;5032721;28;20472;-67
2024/01/27 01:43:58;;;;;;;3.80;3.60;;;5.60;99.90;;;;;;5053786;28;20465;-68
2024/01/27 01:46:24;;;;;;;3.72;3.63;;;5.60;99.90;;;;;;5037689;28;20032;-69
2024/01/27 01:48:50;;;;;;;6.68;4.35;;;5.50;99.90;;;;;;5037210;28;20025;-69
2024/01/27 01:51:16;;;;;;;3.70;3.60;;;5.50;99.90;;;;;;5053817;28;20037;-68
2024/01/27 01:53:43;;;;;;;4.65;3.60;;;5.50;99.90;;;;;;5042722;28;20029;-69
2024/01/27 01:56:09;;;;;;;3.85;3.63;;;5.50;99.90;;;;;;5044602;28;20083;-69
2024/01/27 01:58:34;;;;;;;9.40;3.95;;;5.50;99.90;;;;;;5048086;28;20525;-67
2024/01/27 02:01:03;;;;;;;8.77;4.13;;;5.60;99.90;;;;;;5038255;28;20481;-68
2024/01/27 02:03:28;;;;;;;9.05;4.53;;;5.60;99.90;;;;;;5041695;28;20041;-69
2024/01/27 02:05:55;;;;;;;3.70;3.55;;;5.50;99.90;;;;;;5045938;28;20028;-69
2024/01/27 02:08:24;;;;;;;4.32;4.07;;;5.50;99.90;;;;;;5049040;28;20032;-69
2024/01/27 02:10:50;;;;;;;3.60;3.50;;;5.50;99.90;;;;;;5020660;28;20036;-68
2024/01/27 02:13:23;;;;;;;3.90;3.80;;;5.50;99.90;;;;;;5048030;28;20021;-68
2024/01/27 02:15:50;;;;;;;3.90;3.70;;;5.50;99.90;;;;;;5037816;28;20033;-68
2024/01/27 02:18:16;;;;;;;4.18;4.07;;;5.40;99.90;;;;;;5037760;28;20104;-68
2024/01/27 02:20:42;;;;;;;4.60;4.40;;;5.50;99.90;;;;;;5051819;28;20029;-68
2024/01/27 02:23:09;;;;;;;4.70;4.50;;;5.50;99.90;;;;;;5039268;28;20045;-68
2024/01/27 02:25:35;;;;;;;3.47;3.38;;;5.40;99.90;;;;;;5043002;28;20060;-69
2024/01/27 02:28:02;;;;;;;4.20;3.80;;;5.40;99.90;;;;;;5039857;28;20035;-67
2024/01/27 02:30:28;;;;;;;4.32;4.13;;;5.30;99.90;;;;;;5042789;28;20072;-68
2024/01/27 02:32:55;;;;;;;4.00;3.80;;;5.30;99.90;;;;;;5048308;28;20037;-68
2024/01/27 02:35:21;;;;;;;4.10;3.80;;;5.30;99.90;;;;;;5040600;28;20474;-68
2024/01/27 02:37:47;;;;;;;4.38;4.18;;;5.30;99.90;;;;;;5041457;28;20080;-68
2024/01/27 02:40:12;;;;;;;3.30;3.20;;;5.30;99.90;;;;;;5047818;28;20078;-68
2024/01/27 02:42:38;;;;;;;3.40;3.30;;;5.30;99.90;;;;;;5035729;28;20033;-68
2024/01/27 02:45:04;;;;;;;4.05;3.85;;;5.30;99.90;;;;;;5047314;28;20071;-69
2024/01/27 02:47:30;;;;;;;4.00;3.90;;;5.30;99.90;;;;;;5032646;28;20029;-69
2024/01/27 02:49:56;;;;;;;3.70;3.58;;;5.30;99.90;;;;;;5037926;28;20029;-69
2024/01/27 02:52:21;;;;;;;3.88;3.78;;;5.30;99.90;;;;;;5036089;28;20028;-68
2024/01/27 02:54:48;;;;;;;4.40;4.13;;;5.30;99.90;;;;;;5048794;28;20417;-67
2024/01/27 02:57:15;;;;;;;6.05;5.75;;;5.30;99.90;;;;;;5039185;28;20029;-68
2024/01/27 02:59:41;;;;;;;4.03;3.92;;;5.30;99.90;;;;;;5042002;28;20465;-69
2024/01/27 03:02:06;;;;;;;3.60;3.50;;;5.20;99.90;;;;;;5046749;28;20036;-69
2024/01/27 03:04:32;;;;;;;4.93;4.68;;;5.30;99.90;;;;;;5032157;28;20497;-69
2024/01/27 03:06:57;;;;;;;3.70;3.60;;;5.30;99.90;;;;;;5047726;28;20484;-68
2024/01/27 03:09:23;;;;;;;5.28;4.93;;;5.20;99.90;;;;;;5040370;28;20400;-67
2024/01/27 03:11:49;;;;;;;3.90;3.80;;;5.20;99.90;;;;;;5040429;28;20390;-68
2024/01/27 03:14:14;;;;;;;3.90;3.80;;;5.20;99.90;;;;;;5035823;28;20358;-68
2024/01/27 03:16:40;;;;;;;4.10;4.00;;;5.20;99.90;;;;;;5047286;28;20044;-68
2024/01/27 03:19:06;;;;;;;5.03;4.75;;;5.20;99.90;;;;;;5037941;28;20029;-68
2024/01/27 03:21:32;;;;;;;4.50;4.30;;;5.20;99.90;;;;;;5038199;28;20083;-67
2024/01/27 03:23:58;;;;;;;4.90;4.60;;;5.20;99.90;;;;;;5038127;28;20033;-68
2024/01/27 03:26:23;;;;;;;4.60;4.40;;;5.10;99.90;;;;;;5035903;28;20037;-68
2024/01/27 03:28:49;;;;;;;5.82;5.55;;;5.10;99.90;;;;;;5048323;28;20026;-68
2024/01/27 03:31:14;;;;;;;4.85;4.45;;;5.10;99.90;;;;;;5038958;28;20362;-68
2024/01/27 03:33:40;;;;;;;4.13;4.03;;;5.10;99.90;;;;;;5041306;28;20393;-68
2024/01/27 03:36:11;;;;;;;4.30;4.20;;;5.10;99.90;;;;;;5045610;28;20059;-68
2024/01/27 03:38:37;;;;;;;4.50;4.30;;;5.10;99.90;;;;;;5031639;28;20038;-68
2024/01/27 03:41:03;;;;;;;5.35;5.15;;;5.10;99.90;;;;;;5046628;28;20406;-68
2024/01/27 03:43:30;;;;;;;5.70;5.38;;;5.10;99.90;;;;;;5040912;28;20041;-68
2024/01/27 03:45:55;;;;;;;4.80;4.60;;;5.10;99.90;;;;;;5039444;28;20055;-69
2024/01/27 03:48:21;;;;;;;5.05;4.72;;;5.00;99.90;;;;;;5047423;28;20029;-68
2024/01/27 03:50:47;;;;;;;4.30;4.20;;;5.00;99.90;;;;;;5035243;28;20025;-68
2024/01/27 03:53:13;;;;;;;4.10;4.00;;;5.00;99.90;;;;;;5044860;28;20025;-68
2024/01/27 03:55:38;;;;;;;4.40;4.30;;;5.10;99.90;;;;;;5030887;28;20034;-68
2024/01/27 03:58:04;;;;;;;5.28;4.90;;;5.10;99.90;;;;;;5039478;28;20029;-69
2024/01/27 04:00:32;;;;;;;4.20;4.00;;;5.00;99.90;;;;;;5038188;28;20371;-68
2024/01/27 04:03:01;;;;;;;3.72;3.63;;;5.00;99.90;;;;;;5050393;28;20037;-69
2024/01/27 04:05:28;;;;;;;4.35;4.15;;;5.00;99.90;;;;;;5044326;28;20093;-68
2024/01/27 04:07:54;;;;;;;3.80;3.70;;;5.00;99.90;;;;;;5042914;28;20461;-68
2024/01/27 04:10:22;;;;;;;3.70;3.58;;;5.00;99.90;;;;;;5051659;28;20032;-68
2024/01/27 04:12:47;;;;;;;5.10;3.88;;;5.10;99.90;;;;;;5035371;28;20025;-68
2024/01/27 04:15:13;;;;;;;3.60;3.50;;;5.10;99.90;;;;;;5054374;28;20040;-67
2024/01/27 04:17:40;;;;;;;3.40;3.30;;;5.10;99.90;;;;;;5045098;28;20057;-68
2024/01/27 04:20:06;;;;;;;3.75;3.65;;;5.10;99.90;;;;;;5049524;28;20032;-68
2024/01/27 04:22:33;;;;;;;3.95;3.75;;;5.10;99.90;;;;;;5038807;28;20048;-69
2024/01/27 04:24:59;;;;;;;3.70;3.60;;;5.10;99.90;;;;;;5050719;28;20112;-68
2024/01/27 04:27:27;;;;;;;3.80;3.70;;;5.20;99.90;;;;;;5043791;28;20088;-69
2024/01/27 04:29:58;;;;;;;3.90;3.80;;;5.20;99.90;;;;;;5036080;28;20375;-68
2024/01/27 04:32:24;;;;;;;4.65;4.45;;;5.20;99.90;;;;;;5047345;28;20578;-68
2024/01/27 04:34:49;;;;;;;4.50;4.30;;;5.10;99.90;;;;;;5036992;28;20136;-68
2024/01/27 04:37:15;;;;;;;4.68;4.47;;;5.10;99.90;;;;;;5048246;28;20113;-69
2024/01/27 04:39:41;;;;;;;4.00;3.90;;;5.10;99.90;;;;;;5046750;28;20052;-68
2024/01/27 04:42:06;;;;;;;4.00;3.90;;;5.10;99.90;;;;;;5040924;28;20040;-67
2024/01/27 04:44:32;;;;;;;4.35;4.25;;;5.10;99.90;;;;;;5051164;28;20033;-68
2024/01/27 04:46:58;;;;;;;7.97;5.90;;;5.10;99.90;;;;;;5036610;28;20039;-68
2024/01/27 04:49:24;;;;;;;4.40;4.30;;;5.10;99.90;;;;;;5046931;28;20465;-68
2024/01/27 04:51:49;;;;;;;7.63;4.85;;;5.10;99.90;;;;;;5046337;28;20028;-68
2024/01/27 04:54:15;;;;;;;4.00;3.90;;;5.10;99.90;;;;;;5039472;28;20461;-68
2024/01/27 04:56:41;;;;;;;14.05;6.05;;;5.10;99.90;;;;;;5051443;28;20036;-68
2024/01/27 04:59:06;;;;;;;4.50;4.30;;;5.10;99.90;;;;;;5022708;28;20188;-68
2024/01/27 05:01:33;;;;;;;3.80;3.70;;;5.10;99.90;;;;;;5045275;28;20120;-68
2024/01/27 05:03:58;;;;;;;4.10;4.00;;;5.10;99.90;;;;;;5031630;28;20045;-68
2024/01/27 05:06:24;;;;;;;4.20;4.10;;;5.10;99.90;;;;;;5047957;28;20029;-68
2024/01/27 05:08:49;;;;;;;4.90;4.55;;;5.10;99.90;;;;;;5038099;28;20052;-68
2024/01/27 05:11:24;;;;;;;10.35;6.65;;;5.10;99.90;;;;;;5041036;28;20373;-68
2024/01/27 05:13:50;;;;;;;5.97;5.75;;;5.10;99.90;;;;;;5042779;28;20017;-69
2024/01/27 05:16:15;;;;;;;5.80;5.50;;;5.10;99.90;;;;;;5049847;28;20100;-68
2024/01/27 05:18:41;;;;;;;6.43;6.13;;;5.10;99.90;;;;;;5037793;28;20052;-68
2024/01/27 05:21:07;;;;;;;5.75;5.45;;;5.10;99.90;;;;;;5047358;28;20114;-68
2024/01/27 05:23:32;;;;;;;7.22;6.55;;;5.10;99.90;;;;;;5045251;28;20045;-68
2024/01/27 05:25:58;;;;;;;4.70;4.50;;;5.00;99.90;;;;;;5047236;28;20029;-68
2024/01/27 05:28:23;;;;;;;5.20;5.00;;;5.00;99.90;;;;;;5037470;28;20060;-68
2024/01/27 05:30:49;;;;;;;10.50;5.85;;;5.10;99.90;;;;;;5050696;28;20025;-68
2024/01/27 05:33:16;;;;;;;4.80;4.60;;;5.10;99.90;;;;;;5041117;28;20485;-68
2024/01/27 05:35:42;;;;;;;4.97;4.78;;;5.10;99.90;;;;;;5043581;28;20084;-68
2024/01/27 05:38:08;;;;;;;5.85;5.55;;;5.00;99.90;;;;;;5029483;28;20060;-68
2024/01/27 05:40:34;;;;;;;9.55;5.78;;;5.00;99.90;;;;;;5048648;28;20033;-68
2024/01/27 05:42:59;;;;;;;6.28;5.97;;;5.00;99.90;;;;;;5039228;28;20047;-68
2024/01/27 05:45:26;;;;;;;5.22;4.97;;;5.00;99.90;;;;;;5045765;28;20443;-70
2024/01/27 05:47:52;;;;;;;6.10;5.60;;;5.00;99.90;;;;;;5045907;28;20031;-68
2024/01/27 05:50:17;;;;;;;5.60;5.30;;;5.00;99.90;;;;;;5037679;28;20025;-68
2024/01/27 05:52:43;;;;;;;5.55;5.35;;;5.00;99.90;;;;;;5036277;28;20133;-67
2024/01/27 05:55:11;;;;;;;6.30;5.80;;;5.00;99.90;;;;;;5047206;28;20420;-69
2024/01/27 05:57:36;;;;;;;6.32;6.00;;;5.00;99.90;;;;;;5043721;28;20040;-68
2024/01/27 06:00:02;;;;;;;8.20;6.45;;;5.00;99.90;;;;;;5047189;28;20185;-68
2024/01/27 06:02:28;;;;;;;6.10;5.90;;;4.90;99.90;;;;;;5036993;28;20034;-68
2024/01/27 06:04:54;;;;;;;5.82;5.53;;;4.90;99.90;;;;;;5049360;28;20036;-68
2024/01/27 06:07:19;;;;;;;5.55;5.30;;;4.90;99.90;;;;;;5038609;28;20032;-67
2024/01/27 06:09:45;;;;;;;13.27;8.23;;;4.90;99.90;;;;;;5045013;28;20473;-68
2024/01/27 06:12:10;;;;;;;7.28;6.70;;;4.90;99.90;;;;;;5029138;28;20355;-68
2024/01/27 06:14:36;;;;;;;6.68;5.50;;;4.80;99.90;;;;;;5048152;28;20021;-67
2024/01/27 06:17:05;;;;;;;4.65;4.45;;;4.80;99.90;;;;;;5048005;28;20504;-67
2024/01/27 06:19:31;;;;;;;10.57;5.07;;;4.80;99.90;;;;;;5042740;28;20029;-68
2024/01/27 06:21:57;;;;;;;5.22;4.93;;;4.80;99.90;;;;;;5040238;28;20470;-68
2024/01/27 06:24:22;;;;;;;6.22;5.63;;;4.80;99.90;;;;;;5049829;28;20128;-68
2024/01/27 06:26:48;;;;;;;5.35;5.05;;;4.70;99.90;;;;;;5036674;28;20029;-67
2024/01/27 06:29:13;;;;;;;12.13;6.65;;;4.70;99.90;;;;;;5045827;28;20025;-68
2024/01/27 06:31:39;;;;;;;5.50;5.20;;;4.70;99.90;;;;;;5043080;28;20032;-68
2024/01/27 06:34:05;;;;;;;4.70;4.50;;;4.60;99.90;;;;;;5035727;28;20026;-68
2024/01/27 06:36:32;;;;;;;6.47;5.10;;;4.60;99.90;;;;;;5049205;28;20064;-67
2024/01/27 06:38:57;;;;;;;5.93;5.53;;;4.60;99.90;;;;;;5037651;28;20079;-68
2024/01/27 06:41:23;;;;;;;6.18;5.88;;;4.60;99.90;;;;;;5045010;28;20041;-68
2024/01/27 06:43:49;;;;;;;7.07;6.47;;;4.50;99.90;;;;;;5032801;28;20037;-68
2024/01/27 06:46:14;;;;;;;6.32;5.78;;;4.50;99.90;;;;;;5027535;28;20026;-68
2024/01/27 06:48:40;;;;;;;4.95;4.75;;;4.50;99.90;;;;;;5049053;28;20026;-69
2024/01/27 06:51:06;;;;;;;4.47;4.32;;;4.40;99.90;;;;;;5047312;28;20038;-68
2024/01/27 06:53:31;;;;;;;5.30;5.00;;;4.40;99.90;;;;;;5042039;28;20020;-68
2024/01/27 06:55:57;;;;;;;5.22;4.93;;;4.40;99.90;;;;;;5039773;28;20033;-69
2024/01/27 06:58:23;;;;;;;4.30;4.13;;;4.40;99.90;;;;;;5048786;28;20044;-69
2024/01/27 07:00:48;;;;;;;5.72;5.32;;;4.40;99.90;;;;;;5032834;28;20080;-69
2024/01/27 07:03:14;;;;;;;5.00;4.70;;;4.40;99.90;;;;;;5036023;28;20028;-69
2024/01/27 07:05:40;;;;;;;4.90;4.70;;;4.40;99.90;;;;;;5042320;28;20029;-69
2024/01/27 07:08:09;;;;;;;4.40;4.28;;;4.40;99.90;;;;;;5046714;28;20025;-68
2024/01/27 07:10:38;;;;;;;5.95;5.55;;;4.40;99.90;;;;;;5036095;28;20037;-68
2024/01/27 07:13:06;;;;;;;4.88;4.68;;;4.40;99.90;;;;;;5046727;28;20036;-68
2024/01/27 07:15:31;;;;;;;3.65;3.53;;;4.40;99.90;;;;;;5041621;28;20037;-69
2024/01/27 07:17:57;;;;;;;3.92;3.83;;;4.40;99.90;;;;;;5039720;28;20032;-69
2024/01/27 07:20:24;;;;;;;4.00;3.80;;;4.50;99.90;;;;;;5025190;28;20192;-67
2024/01/27 07:22:49;;;;;;;3.85;3.75;;;4.50;99.90;;;;;;5019447;28;20033;-69
2024/01/27 07:25:15;;;;;;;4.97;4.55;;;4.50;99.90;;;;;;5045431;28;20022;-69
2024/01/27 07:27:42;;;;;;;2.95;2.78;;;4.50;99.90;;;;;;5042737;28;20028;-69
2024/01/27 07:30:09;;;;;;;2.50;2.40;;;4.50;99.90;;;;;;5037920;28;20036;-69
2024/01/27 07:32:34;;;;;;;4.03;3.58;;;4.60;99.90;;;;;;5048763;28;20063;-69
2024/01/27 07:35:02;;;;;;;3.35;3.15;;;4.60;99.90;;;;;;5036328;28;20047;-69
2024/01/27 07:37:28;;;;;;;3.10;2.40;;;4.60;99.90;;;;;;5039760;28;20022;-69
2024/01/27 07:39:53;;;;;;;2.10;2.10;;;4.70;99.90;;;;;;5044297;28;20075;-69
2024/01/27 07:42:19;;;;;;;5.65;4.00;;;4.70;99.90;;;;;;5035975;28;20422;-69
2024/01/27 07:44:45;;;;;;;1.90;1.90;;;4.80;99.90;;;;;;5048301;28;20109;-69
2024/01/27 07:47:10;;;;;;;1.65;1.65;;;4.80;99.90;;;;;;5037156;28;20052;-69
2024/01/27 07:49:36;;;;;;;3.90;2.78;;;4.80;99.90;;;;;;5042385;28;20029;-68
2024/01/27 07:52:01;;;;;;;1.85;1.85;;;4.90;99.90;;;;;;5032515;28;20028;-67
2024/01/27 07:54:27;;;;;;;30.52;3.97;;;4.90;99.90;;;;;;5032634;28;20041;-69
2024/01/27 07:56:52;;;;;;;2.92;1.98;;;4.90;99.90;;;;;;5032004;28;20541;-68
2024/01/27 07:59:18;;;;;;;4.13;3.50;;;4.90;99.90;;;;;;5032211;28;20021;-68
2024/01/27 08:01:44;;;;;;;1.85;1.80;;;5.00;99.90;;;;;;5024023;28;20022;-68
2024/01/27 08:04:10;;;;;;;2.38;2.22;;;5.10;99.90;;;;;;5011999;28;20042;-69
2024/01/27 08:06:47;;;;;;;1.40;1.40;;;5.10;99.90;;;;;;5009649;28;20036;-68
2024/01/27 08:09:12;;;;;;;3.42;2.80;;;5.20;99.90;;;;;;5031921;28;20026;-68
2024/01/27 08:11:38;;;;;;;2.95;1.95;;;5.30;99.90;;;;;;5036795;28;20350;-68
2024/01/27 08:14:03;;;;;;;8.75;2.13;;;5.30;99.90;;;;;;5029150;28;20069;-68
2024/01/27 08:16:31;;;;;;;5.50;2.20;;;5.30;99.90;;;;;;5031004;28;20049;-68
2024/01/27 08:18:56;;;;;;;1.55;1.55;;;5.40;99.90;;;;;;5031887;28;20037;-68
2024/01/27 08:21:22;;;;;;;2.15;1.70;;;5.40;99.90;;;;;;5028759;28;20355;-69
2024/01/27 08:23:48;;;;;;;1.40;1.40;;;5.40;99.90;;;;;;5029227;28;20397;-69
2024/01/27 08:26:14;;;;;;;2.78;1.52;;;5.50;99.90;;;;;;5038366;28;20040;-68
2024/01/27 08:28:40;;;;;;;3.45;1.80;;;5.60;99.90;;;;;;5032664;28;20104;-68
2024/01/27 08:31:05;;;;;;;1.02;1.02;;;5.70;99.90;;;;;;5029738;28;20092;-69
2024/01/27 08:33:31;;;;;;;2.40;2.22;;;5.70;99.90;;;;;;5030473;28;20029;-69
2024/01/27 08:35:56;;;;;;;1.75;1.10;;;5.80;99.90;;;;;;5029869;28;20053;-68
2024/01/27 08:38:22;;;;;;;7.53;3.42;;;5.90;99.90;;;;;;5031696;28;20402;-68
2024/01/27 08:40:48;;;;;;;17.25;4.35;;;6.00;99.90;;;;;;5030229;28;20486;-69
2024/01/27 08:43:13;;;;;;;4.88;2.35;;;6.00;99.90;;;;;;5028413;28;20039;-68
2024/01/27 08:45:39;;;;;;;1.38;1.38;;;6.10;99.90;;;;;;5036082;28;20032;-68
2024/01/27 08:48:05;;;;;;;7.05;3.15;;;6.10;99.90;;;;;;5034451;28;20039;-69
2024/01/27 08:50:31;;;;;;;1.40;1.40;;;6.20;99.90;;;;;;5032898;28;20029;-69
2024/01/27 08:52:57;;;;;;;4.78;3.30;;;6.30;99.90;;;;;;5036860;28;20055;-68
2024/01/27 08:55:23;;;;;;;7.90;3.58;;;6.30;99.90;;;;;;5035224;28;20025;-69
2024/01/27 08:57:50;;;;;;;2.25;2.13;;;6.30;99.90;;;;;;5031983;28;20052;-69
2024/01/27 09:00:16;;;;;;;2.78;2.33;;;6.30;99.90;;;;;;5028371;28;20032;-69
2024/01/27 09:02:43;;;;;;;3.92;3.63;;;6.40;99.90;;;;;;5034279;28;20091;-69
2024/01/27 09:05:09;;;;;;;1.77;1.73;;;6.40;99.90;;;;;;5040784;28;20091;-68
2024/01/27 09:07:34;;;;;;;2.28;2.10;;;6.50;99.90;;;;;;5027789;28;20397;-69
2024/01/27 09:10:00;;;;;;;1.40;1.40;;;6.50;99.90;;;;;;5038451;28;20031;-68
2024/01/27 09:12:26;;;;;;;1.75;1.75;;;6.60;99.90;;;;;;5026796;28;20030;-69
2024/01/27 09:14:53;;;;;;;1.60;1.60;;;6.70;99.90;;;;;;5038838;28;20021;-69
2024/01/27 09:17:19;;;;;;;2.00;2.00;;;6.80;99.90;;;;;;5034828;28;20037;-69
2024/01/27 09:19:45;;;;;;;1.67;1.67;;;6.80;99.90;;;;;;5025209;28;20422;-69
2024/01/27 09:22:11;;;;;;;2.10;2.00;;;6.80;99.90;;;;;;5014967;28;20026;-69
2024/01/27 09:24:36;;;;;;;3.30;2.60;;;6.90;99.90;;;;;;5021827;28;20048;-69
2024/01/27 09:27:02;;;;;;;3.30;3.08;;;7.00;99.90;;;;;;5037117;28;20056;-68
2024/01/27 09:29:27;;;;;;;3.35;3.08;;;7.00;99.90;;;;;;5033806;28;20036;-69
2024/01/27 09:31:53;;;;;;;2.97;2.78;;;7.00;99.90;;;;;;5032858;28;20083;-69
2024/01/27 09:34:18;;;;;;;3.35;2.60;;;7.10;99.90;;;;;;5033483;28;20049;-69
2024/01/27 09:36:44;;;;;;;3.25;2.95;;;7.20;99.90;;;;;;5047494;28;20049;-69
2024/01/27 09:39:09;;;;;;;9.32;4.10;;;7.30;99.90;;;;;;5045507;28;20021;-68
2024/01/27 09:41:35;;;;;;;5.45;2.95;;;7.50;99.90;;;;;;5030949;28;20056;-68
2024/01/27 09:44:02;;;;;;;5.65;3.40;;;7.60;99.90;;;;;;5033809;28;20056;-68
2024/01/27 09:46:29;;;;;;;2.45;2.25;;;7.70;99.90;;;;;;5042357;28;20067;-69
2024/01/27 09:48:55;;;;;;;2.70;2.50;;;8.10;99.90;;;;;;5047389;28;20671;-69
2024/01/27 09:51:21;;;;;;;14.98;4.22;;;8.40;99.90;;;;;;5040210;28;20017;-70
2024/01/27 09:53:47;;;;;;;3.40;3.10;;;8.80;99.90;;;;;;5051989;28;20021;-69
2024/01/27 09:56:17;;;;;;;4.13;3.83;;;9.00;99.90;;;;;;5037682;28;20060;-68
2024/01/27 09:58:48;;;;;;;3.75;3.55;;;9.70;99.90;;;;;;5014437;28;20030;-69
2024/01/27 10:01:17;;;;;;;9.60;3.67;;;10.40;99.90;;;;;;5022423;28;20037;-69
2024/01/27 10:03:43;;;;;;;3.40;2.28;;;10.80;99.90;;;;;;5033151;28;20512;-68
2024/01/27 10:06:09;;;;;;;4.00;1.73;;;11.30;99.90;;;;;;5032737;28;20057;-68
2024/01/27 10:08:35;;;;;;;1.05;1.05;;;11.60;99.90;;;;;;5034138;28;20076;-69
2024/01/27 10:11:09;;;;;;;1.42;1.35;;;12.00;99.90;;;;;;5026941;28;20392;-69
2024/01/27 10:13:36;;;;;;;3.90;2.67;;;12.50;99.90;;;;;;5027209;28;20025;-69
2024/01/27 10:16:06;;;;;;;2.30;2.10;;;12.70;99.90;;;;;;5032360;28;20087;-69
2024/01/27 10:18:33;;;;;;;4.38;1.73;;;12.80;99.90;;;;;;5031544;28;20021;-68
2024/01/27 10:20:58;;;;;;;3.00;2.25;;;13.00;99.90;;;;;;5036398;28;20029;-68
2024/01/27 10:23:24;;;;;;;12.82;3.83;;;13.00;99.90;;;;;;5040009;28;20048;-69
2024/01/27 10:25:50;;;;;;;3.08;1.08;;;13.10;99.90;;;;;;5029379;28;20029;-69
2024/01/27 10:28:17;;;;;;;5.10;1.25;;;13.20;99.90;;;;;;5034117;28;20473;-69
2024/01/27 10:30:43;;;;;;;2.00;0.80;;;13.70;99.90;;;;;;5031213;28;20068;-69
2024/01/27 10:33:10;;;;;;;3.70;1.65;;;14.00;99.90;;;;;;5032217;28;20033;-69
2024/01/27 10:35:36;;;;;;;1.05;0.88;;;13.90;99.90;;;;;;5031833;28;20496;-69
2024/01/27 10:38:02;;;;;;;1.50;1.15;;;14.10;99.90;;;;;;5031114;28;20072;-70
2024/01/27 10:40:27;;;;;;;3.20;1.02;;;14.30;99.90;;;;;;5033280;28;20040;-68
2024/01/27 10:43:07;;;;;;;0.30;0.30;;;14.30;99.90;;;;;;5035347;28;20481;-68
2024/01/27 10:45:44;;;;;;;5.22;2.15;;;14.70;99.90;;;;;;5028079;28;20426;-68
2024/01/27 10:48:11;;;;;;;1.08;1.05;;;15.00;99.90;;;;;;5030296;28;20105;-69
2024/01/27 10:50:40;;;;;;;0.20;0.20;;;14.60;99.90;;;;;;5027782;28;20427;-70
2024/01/27 10:53:35;;;;;;;4.68;1.08;;;14.30;99.90;;;;;;5034913;28;20045;-70
2024/01/27 10:56:01;;;;;;;2.65;1.23;;;14.00;99.90;;;;;;5029777;28;20121;-69
2024/01/27 10:58:29;;;;;;;0.20;0.20;;;13.80;99.90;;;;;;5031902;28;20033;-69
2024/01/27 11:00:56;;;;;;;1.42;0.98;;;13.80;99.90;;;;;;5028039;28;20405;-69
2024/01/27 11:03:23;;;;;;;4.07;1.27;;;14.10;99.90;;;;;;5031652;28;20041;-70
2024/01/27 11:05:51;;;;;;;9.25;1.98;;;14.10;99.90;;;;;;5031458;28;20017;-69
2024/01/27 11:08:18;;;;;;;6.00;2.22;;;14.40;99.90;;;;;;5033297;28;20021;-69
2024/01/27 11:10:45;;;;;;;4.20;1.23;;;14.50;99.90;;;;;;5017445;28;20029;-69
2024/01/27 11:13:11;;;;;;;2.00;0.70;;;14.70;99.90;;;;;;5036317;28;20537;-69
2024/01/27 11:15:37;;;;;;;3.08;2.55;;;14.90;99.90;;;;;;5031200;28;20025;-69
2024/01/27 11:18:04;;;;;;;6.70;1.17;;;15.00;99.90;;;;;;5035092;28;20124;-69
2024/01/27 11:20:34;;;;;;;5.88;1.75;;;14.80;99.90;;;;;;5030447;28;20437;-69
2024/01/27 11:23:10;;;;;;;1.25;0.77;;;14.60;99.90;;;;;;5036676;28;20072;-69
2024/01/27 11:25:35;;;;;;;2.28;0.82;;;14.40;99.90;;;;;;5031311;28;20041;-68
2024/01/27 11:28:14;;;;;;;3.50;2.03;;;14.40;99.90;;;;;;5031473;28;20026;-68
2024/01/27 11:30:44;;;;;;;6.80;1.48;;;14.40;99.90;;;;;;5032286;28;20120;-68
2024/01/27 11:33:10;;;;;;;2.00;0.73;;;14.70;99.90;;;;;;5032952;28;20029;-69
2024/01/27 11:35:36;;;;;;;0.63;0.57;;;14.70;99.90;;;;;;5037902;28;20045;-69
2024/01/27 11:38:01;;;;;;;3.78;1.50;;;14.90;99.90;;;;;;5032672;28;20367;-69
2024/01/27 11:40:28;;;;;;;2.10;0.90;;;14.90;99.90;;;;;;5040918;28;20029;-70
2024/01/27 11:42:57;;;;;;;15.77;1.02;;;14.90;99.90;;;;;;5036392;28;20193;-70
2024/01/27 11:45:23;;;;;;;7.22;2.17;;;14.70;99.90;;;;;;5034995;28;20033;-69
2024/01/27 11:47:49;;;;;;;2.50;1.02;;;14.70;99.90;;;;;;5047796;28;20423;-69
2024/01/27 11:50:19;;;;;;;0.38;0.30;;;14.20;99.90;;;;;;5046202;28;20448;-69
2024/01/27 11:52:44;;;;;;;0.52;0.52;;;14.20;99.90;;;;;;5026559;28;20078;-68
2024/01/27 11:55:10;;;;;;;1.13;0.52;;;14.30;99.90;;;;;;5039653;28;20025;-69
2024/01/27 11:57:36;;;;;;;1.30;0.95;;;14.50;99.90;;;;;;5030250;28;20381;-69
2024/01/27 12:00:02;;;;;;;6.35;2.08;;;14.80;99.90;;;;;;5037399;28;20155;-68
2024/01/27 12:02:27;;;;;;;0.93;0.20;;;14.90;99.90;;;;;;5037648;28;20108;-69
2024/01/27 12:04:54;;;;;;;0.10;0.10;;;15.10;99.90;;;;;;5029919;28;20205;-69
2024/01/27 12:07:21;;;;;;;0.52;0.52;;;15.10;99.90;;;;;;5029695;28;20043;-69
2024/01/27 12:09:48;;;;;;;3.25;1.05;;;15.10;99.90;;;;;;5030683;28;20037;-69
2024/01/27 12:12:16;;;;;;;2.58;1.65;;;15.00;99.90;;;;;;5035388;28;20053;-69
2024/01/27 12:14:50;;;;;;;3.95;0.82;;;14.80;99.90;;;;;;5034039;28;20044;-69
2024/01/27 12:17:16;;;;;;;6.20;1.98;;;14.60;99.90;;;;;;5045015;28;20036;-68
2024/01/27 12:19:49;;;;;;;2.83;0.40;;;14.60;99.90;;;;;;5039946;28;20036;-69
2024/01/27 12:22:26;;;;;;;1.45;0.82;;;14.50;99.90;;;;;;5039822;28;20029;-69
2024/01/27 12:24:52;;;;;;;3.65;0.95;;;14.60;99.90;;;;;;5040467;28;20059;-69
2024/01/27 12:27:17;;;;;;;1.75;1.42;;;14.60;99.90;;;;;;5034786;28;20022;-69
2024/01/27 12:29:43;;;;;;;0.85;0.82;;;14.40;99.90;;;;;;5036435;28;20479;-68
2024/01/27 12:32:09;;;;;;;1.77;0.85;;;14.30;99.90;;;;;;5038570;28;20076;-68
2024/01/27 12:34:41;;;;;;;0.45;0.45;;;14.00;99.90;;;;;;5042055;28;20028;-69
2024/01/27 12:37:13;;;;;;;0.77;0.77;;;13.70;99.90;;;;;;5043651;28;20381;-69
2024/01/27 12:39:47;;;;;;;2.42;2.25;;;13.60;99.90;;;;;;5047960;28;20035;-69
2024/01/27 12:42:12;;;;;;;19.15;6.90;;;13.50;99.90;;;;;;5053348;28;20033;-69
2024/01/27 12:44:39;;;;;;;3.33;1.20;;;13.20;99.90;;;;;;5055079;28;20036;-69
2024/01/27 12:47:11;;;;;;;4.38;1.52;;;13.10;99.90;;;;;;5034545;28;20393;-70
2024/01/27 12:49:37;;;;;;;;;;;13.10;99.90;;;;;;5033086;28;20064;-70
2024/01/27 12:52:03;;;;;;;2.35;0.77;;;13.20;99.90;;;;;;5042791;28;19954;-70